createdAt,value
2022-12-01T00:01:52.713Z,52.37
2022-12-01T00:06:20.482Z,47.43
2022-12-01T00:10:28.679Z,48.47
2022-12-01T00:14:55.147Z,52.60
2022-12-01T00:18:58.834Z,46.83
2022-12-01T00:23:01.197Z,49.53
2022-12-01T00:27:04.263Z,50.77
2022-12-01T00:31:30.085Z,53.93
2022-12-01T00:35:59.469Z,52.70
2022-12-01T00:40:40.012Z,47.77
2022-12-01T00:44:42.435Z,52.20
2022-12-01T00:48:44.329Z,41.27
2022-12-01T00:52:48.364Z,48.67
2022-12-01T00:56:51.039Z,47.93
2022-12-01T01:01:00.198Z,50.03
2022-12-01T01:05:02.320Z,47.87
2022-12-01T01:09:32.879Z,47.53
2022-12-01T01:13:35.858Z,50.03
2022-12-01T01:18:47.360Z,50.10
2022-12-01T01:22:49.299Z,46.07
2022-12-01T01:26:51.498Z,50.27
2022-12-01T01:30:54.509Z,50.20
2022-12-01T01:34:56.585Z,46.13
2022-12-01T01:38:58.457Z,47.83
2022-12-01T01:43:00.326Z,45.70
2022-12-01T01:47:02.526Z,49.43
2022-12-01T01:51:05.837Z,48.87
2022-12-01T01:55:08.267Z,56.13
2022-12-01T01:59:12.770Z,49.37
2022-12-01T02:04:05.130Z,48.70
2022-12-01T02:08:12.532Z,46.17
2022-12-01T02:12:54.005Z,43.83
2022-12-01T02:17:16.898Z,51.10
2022-12-01T02:21:39.016Z,45.77
2022-12-01T02:26:13.229Z,50.50
2022-12-01T02:30:45.857Z,48.50
2022-12-01T02:35:42.179Z,47.00
2022-12-01T02:40:39.706Z,48.03
2022-12-01T02:44:45.935Z,36.90
2022-12-01T02:49:58.496Z,37.97
2022-12-01T02:54:04.188Z,37.00
2022-12-01T02:58:22.349Z,41.93
2022-12-01T03:03:13.283Z,40.97
2022-12-01T03:07:49.189Z,43.73
2022-12-01T03:12:19.633Z,43.20
2022-12-01T03:16:54.177Z,47.57
2022-12-01T03:21:22.963Z,45.67
2022-12-01T03:32:16.001Z,44.90
2022-12-01T03:36:41.960Z,46.83
2022-12-01T03:40:49.864Z,46.13
2022-12-01T03:45:26.753Z,44.33
2022-12-01T03:49:36.218Z,41.17
2022-12-01T03:53:55.187Z,44.30
2022-12-01T03:58:35.792Z,47.57
2022-12-01T04:03:42.331Z,46.40
2022-12-01T04:07:48.539Z,43.13
2022-12-01T04:12:11.216Z,44.87
2022-12-01T04:16:14.309Z,44.40
2022-12-01T04:20:17.932Z,43.63
2022-12-01T04:24:20.041Z,37.40
2022-12-01T04:28:27.573Z,40.83
2022-12-01T04:32:29.731Z,46.07
2022-12-01T04:37:10.225Z,44.03
2022-12-01T04:41:40.205Z,41.97
2022-12-01T04:45:42.181Z,46.50
2022-12-01T04:49:45.293Z,44.23
2022-12-01T04:53:47.169Z,44.47
2022-12-01T04:58:15.057Z,44.23
2022-12-01T05:02:24.376Z,45.90
2022-12-01T05:07:18.391Z,43.47
2022-12-01T05:11:46.137Z,46.47
2022-12-01T05:15:52.204Z,39.57
2022-12-01T05:20:12.822Z,46.73
2022-12-01T05:24:16.090Z,49.27
2022-12-01T05:28:18.453Z,47.50
2022-12-01T05:32:20.332Z,45.73
2022-12-01T05:36:22.498Z,45.17
2022-12-01T05:40:24.430Z,44.77
2022-12-01T05:44:26.340Z,48.20
2022-12-01T05:48:28.235Z,45.27
2022-12-01T05:52:58.165Z,41.07
2022-12-01T05:57:07.168Z,49.03
2022-12-01T06:01:11.179Z,42.23
2022-12-01T06:05:17.282Z,46.97
2022-12-01T06:09:21.572Z,43.93
2022-12-01T06:13:23.447Z,42.23
2022-12-01T06:18:20.177Z,45.93
2022-12-01T06:22:23.281Z,46.97
2022-12-01T06:26:32.484Z,51.07
2022-12-01T06:30:34.536Z,49.17
2022-12-01T06:34:36.394Z,52.93
2022-12-01T06:39:10.709Z,47.87
2022-12-01T06:43:16.330Z,54.53
2022-12-01T06:47:18.430Z,54.20
2022-12-01T06:51:24.571Z,55.27
2022-12-01T06:55:30.228Z,51.60
2022-12-01T06:59:32.394Z,59.10
2022-12-01T07:03:59.684Z,54.90
2022-12-01T07:08:03.509Z,59.77
2022-12-01T07:12:08.724Z,54.43
2022-12-01T07:16:38.398Z,53.63
2022-12-01T07:20:40.322Z,52.47
2022-12-01T07:25:34.794Z,56.83
2022-12-01T07:29:36.708Z,54.97
2022-12-01T07:33:39.395Z,56.67
2022-12-01T07:37:41.380Z,63.97
2022-12-01T07:41:43.490Z,55.90
2022-12-01T07:45:45.650Z,56.10
2022-12-01T07:49:48.238Z,58.00
2022-12-01T07:53:53.895Z,54.97
2022-12-01T07:59:02.320Z,50.23
2022-12-01T08:03:58.004Z,61.63
2022-12-01T08:08:02.377Z,54.33
2022-12-01T08:12:41.892Z,52.40
2022-12-01T08:16:49.846Z,51.90
2022-12-01T08:20:58.433Z,46.10
2022-12-01T08:25:05.854Z,52.73
2022-12-01T08:29:07.693Z,58.63
2022-12-01T08:34:12.398Z,51.10
2022-12-01T08:38:18.415Z,55.50
2022-12-01T08:42:21.247Z,57.50
2022-12-01T08:46:23.194Z,53.50
2022-12-01T08:50:42.745Z,48.67
2022-12-01T09:00:45.474Z,55.23
2022-12-01T09:04:47.826Z,51.13
2022-12-01T09:08:55.413Z,54.87
2022-12-01T09:12:57.696Z,52.13
2022-12-01T09:17:26.300Z,48.10
2022-12-01T09:21:43.419Z,48.67
2022-12-01T09:25:45.632Z,47.00
2022-12-01T09:29:47.802Z,54.23
2022-12-01T09:34:02.245Z,55.47
2022-12-01T09:38:04.740Z,53.33
2022-12-01T09:42:18.710Z,52.37
2022-12-01T09:46:44.746Z,56.13
2022-12-01T09:50:50.275Z,50.13
2022-12-01T09:54:55.600Z,51.10
2022-12-01T09:59:24.891Z,54.67
2022-12-01T10:03:55.320Z,56.17
2022-12-01T10:08:27.150Z,55.93
2022-12-01T10:12:44.259Z,57.63
2022-12-01T10:17:04.068Z,54.80
2022-12-01T10:21:27.816Z,51.90
2022-12-01T10:25:57.268Z,51.10
2022-12-01T10:30:20.285Z,57.37
2022-12-01T10:34:33.786Z,49.67
2022-12-01T10:44:12.961Z,50.27
2022-12-01T10:48:22.372Z,52.70
2022-12-01T10:52:41.015Z,48.10
2022-12-01T10:57:00.277Z,50.33
2022-12-01T11:01:15.757Z,50.23
2022-12-01T11:05:34.191Z,49.13
2022-12-01T11:09:40.970Z,49.53
2022-12-01T11:13:44.068Z,51.60
2022-12-01T11:17:46.204Z,51.20
2022-12-01T11:21:53.311Z,52.00
2022-12-01T11:26:34.720Z,50.13
2022-12-01T11:31:06.322Z,51.43
2022-12-01T11:35:20.991Z,50.20
2022-12-01T11:40:18.873Z,52.43
2022-12-01T11:48:58.396Z,48.53
2022-12-01T11:53:00.879Z,48.23
2022-12-01T11:57:32.574Z,46.80
2022-12-01T12:02:14.971Z,45.07
2022-12-01T12:06:39.849Z,50.90
2022-12-01T12:11:21.521Z,49.13
2022-12-01T12:20:30.991Z,49.83
2022-12-01T12:25:34.832Z,47.53
2022-12-01T12:29:46.246Z,46.47
2022-12-01T12:34:29.198Z,44.23
2022-12-01T12:38:48.405Z,51.33
2022-12-01T12:43:12.414Z,47.00
2022-12-01T12:48:08.056Z,47.93
2022-12-01T12:52:31.252Z,44.43
2022-12-01T12:56:35.614Z,51.77
2022-12-01T13:00:49.737Z,48.67
2022-12-01T13:05:05.243Z,49.73
2022-12-01T13:09:18.139Z,44.47
2022-12-01T13:14:19.857Z,48.33
2022-12-01T13:18:22.793Z,46.97
2022-12-01T13:22:32.209Z,43.33
2022-12-01T13:26:37.889Z,45.40
2022-12-01T13:30:41.175Z,54.00
2022-12-01T13:34:47.994Z,47.50
2022-12-01T13:39:36.257Z,49.43
2022-12-01T13:44:07.322Z,47.13
2022-12-01T13:48:37.186Z,52.27
2022-12-01T13:53:06.711Z,52.33
2022-12-01T13:57:25.614Z,50.97
2022-12-01T14:01:30.338Z,48.47
2022-12-01T14:05:57.171Z,56.00
2022-12-01T14:10:32.249Z,51.13
2022-12-01T14:15:03.323Z,49.27
2022-12-01T14:19:29.249Z,53.17
2022-12-01T14:24:01.857Z,54.77
2022-12-01T14:28:04.665Z,50.60
2022-12-01T14:32:09.855Z,49.53
2022-12-01T14:42:09.082Z,55.67
2022-12-01T14:46:23.124Z,54.87
2022-12-01T14:50:53.668Z,55.30
2022-12-01T14:54:58.660Z,56.80
2022-12-01T15:00:04.866Z,58.17
2022-12-01T15:04:32.989Z,49.47
2022-12-01T15:08:43.449Z,51.40
2022-12-01T15:12:49.554Z,51.23
2022-12-01T15:16:53.064Z,55.57
2022-12-01T15:21:27.297Z,57.37
2022-12-01T15:25:37.559Z,53.53
2022-12-01T15:30:05.511Z,54.07
2022-12-01T15:34:37.198Z,61.47
2022-12-01T15:38:42.444Z,59.10
2022-12-01T15:43:04.069Z,56.30
2022-12-01T15:47:55.980Z,47.20
2022-12-01T15:52:09.436Z,50.50
2022-12-01T15:56:12.209Z,50.77
2022-12-01T16:00:20.377Z,52.20
2022-12-01T16:04:28.237Z,52.40
2022-12-01T16:08:32.413Z,50.53
2022-12-01T16:12:36.856Z,49.03
2022-12-01T16:16:55.939Z,47.43
2022-12-01T16:22:03.073Z,58.37
2022-12-01T16:26:54.644Z,49.20
2022-12-01T16:30:57.204Z,47.80
2022-12-01T16:34:59.784Z,42.27
2022-12-01T16:39:07.315Z,36.50
2022-12-01T16:43:30.041Z,39.87
2022-12-01T16:47:32.845Z,40.37
2022-12-01T16:51:54.759Z,40.63
2022-12-01T16:56:00.506Z,37.50
2022-12-01T17:00:20.633Z,38.83
2022-12-01T17:04:22.652Z,50.87
2022-12-01T17:08:25.262Z,53.13
2022-12-01T17:12:27.249Z,57.53
2022-12-01T17:16:29.259Z,50.17
2022-12-01T17:20:31.267Z,48.77
2022-12-01T17:24:33.309Z,56.93
2022-12-01T17:28:35.605Z,58.70
2022-12-01T17:33:57.724Z,54.77
2022-12-01T17:38:05.702Z,57.30
2022-12-01T17:42:26.402Z,55.60
2022-12-01T17:46:57.980Z,65.03
2022-12-01T17:51:02.139Z,51.77
2022-12-01T17:55:30.835Z,55.23
2022-12-01T17:59:39.594Z,63.90
2022-12-01T18:04:09.998Z,52.20
2022-12-01T18:09:10.535Z,57.27
2022-12-01T18:19:59.404Z,65.17
2022-12-01T18:29:01.906Z,61.63
2022-12-01T18:33:48.221Z,66.43
2022-12-01T20:20:27.812Z,91.87
2022-12-01T20:24:36.034Z,116.70
2022-12-01T20:28:38.972Z,129.23
2022-12-01T20:32:41.028Z,276.30
2022-12-01T20:36:46.785Z,81.50
2022-12-01T20:40:52.364Z,83.20
2022-12-01T20:44:54.393Z,169.40
2022-12-01T20:48:59.210Z,105.73
2022-12-01T20:53:24.156Z,220.10
2022-12-01T20:57:28.608Z,219.20
2022-12-01T21:01:32.942Z,274.73
2022-12-01T21:05:38.276Z,228.27
2022-12-01T21:09:40.471Z,340.47
2022-12-01T21:13:42.787Z,245.33
2022-12-01T21:18:12.603Z,400.00
2022-12-01T21:22:14.779Z,106.37
2022-12-01T21:26:19.212Z,120.07
2022-12-01T21:30:31.750Z,364.00
2022-12-01T21:34:35.690Z,516.43
2022-12-01T21:38:37.597Z,356.97
2022-12-01T21:42:39.492Z,421.57
2022-12-01T21:46:46.652Z,328.63
2022-12-01T21:51:36.242Z,367.30
2022-12-01T21:55:44.339Z,671.03
2022-12-01T21:59:46.326Z,564.40
2022-12-01T22:04:31.586Z,469.80
2022-12-01T22:08:40.433Z,324.13
2022-12-01T22:13:42.875Z,234.97
2022-12-01T22:17:44.784Z,487.77
2022-12-01T22:22:25.292Z,389.37
2022-12-01T22:26:32.926Z,482.67
2022-12-01T22:30:52.593Z,519.80
2022-12-01T22:35:54.900Z,514.93
2022-12-01T22:39:57.519Z,440.47
2022-12-01T22:44:01.538Z,349.20
2022-12-01T22:49:06.053Z,365.27
2022-12-01T22:53:18.144Z,329.43
2022-12-01T22:57:43.147Z,302.07
2022-12-01T23:01:59.512Z,384.00
2022-12-01T23:06:45.558Z,452.23
2022-12-01T23:10:47.757Z,140.23
2022-12-01T23:14:52.860Z,376.77
2022-12-01T23:18:55.591Z,338.60
2022-12-01T23:23:00.660Z,322.93
2022-12-01T23:27:02.711Z,313.27
2022-12-01T23:31:06.145Z,295.23
2022-12-01T23:35:38.091Z,258.17
2022-12-01T23:39:40.041Z,240.43
2022-12-01T23:43:44.365Z,270.70
2022-12-01T23:47:46.565Z,321.83
2022-12-01T23:53:00.650Z,331.40
2022-12-01T23:57:54.636Z,88.40
